sensor_id;sensor_type;location;lat;lon;timestamp;pressure;altitude;pressure_sealevel;temperature;humidity
46710;BME280;32442;51.514;-0.178;2023-02-19T00:01:52;101969.41;;;17.27;52.03
46710;BME280;32442;51.514;-0.178;2023-02-19T00:04:19;101970.50;;;17.26;52.22
46710;BME280;32442;51.514;-0.178;2023-02-19T00:06:48;101978.09;;;17.26;52.02
46710;BME280;32442;51.514;-0.178;2023-02-19T00:09:16;101972.50;;;17.26;51.91
46710;BME280;32442;51.514;-0.178;2023-02-19T00:11:45;101974.44;;;17.25;52.34
46710;BME280;32442;51.514;-0.178;2023-02-19T00:14:14;101980.88;;;17.26;52.17
46710;BME280;32442;51.514;-0.178;2023-02-19T00:16:41;101988.66;;;17.24;52.14
46710;BME280;32442;51.514;-0.178;2023-02-19T00:19:11;101989.50;;;17.24;52.08
46710;BME280;32442;51.514;-0.178;2023-02-19T00:21:38;101988.41;;;17.25;51.86
46710;BME280;32442;51.514;-0.178;2023-02-19T00:24:05;101986.72;;;17.24;51.91
46710;BME280;32442;51.514;-0.178;2023-02-19T00:26:33;101987.56;;;17.25;51.92
46710;BME280;32442;51.514;-0.178;2023-02-19T00:29:00;101993.41;;;17.23;51.90
46710;BME280;32442;51.514;-0.178;2023-02-19T00:36:31;101997.03;;;17.24;51.89
46710;BME280;32442;51.514;-0.178;2023-02-19T00:39:01;102003.47;;;17.24;52.03
46710;BME280;32442;51.514;-0.178;2023-02-19T00:41:29;102008.19;;;17.24;51.73
46710;BME280;32442;51.514;-0.178;2023-02-19T00:48:50;102015.72;;;17.23;52.06
46710;BME280;32442;51.514;-0.178;2023-02-19T00:51:20;102025.22;;;17.22;51.77
46710;BME280;32442;51.514;-0.178;2023-02-19T00:53:47;102028.00;;;17.22;51.93
46710;BME280;32442;51.514;-0.178;2023-02-19T00:56:15;102039.16;;;17.22;52.13
46710;BME280;32442;51.514;-0.178;2023-02-19T00:58:42;102036.38;;;17.22;51.90
46710;BME280;32442;51.514;-0.178;2023-02-19T01:01:09;102040.03;;;17.23;51.99
46710;BME280;32442;51.514;-0.178;2023-02-19T01:03:36;102035.81;;;17.20;51.84
46710;BME280;32442;51.514;-0.178;2023-02-19T01:06:05;102041.97;;;17.22;52.14
46710;BME280;32442;51.514;-0.178;2023-02-19T01:08:32;102035.53;;;17.22;51.92
46710;BME280;32442;51.514;-0.178;2023-02-19T01:11:00;102041.97;;;17.22;51.90
46710;BME280;32442;51.514;-0.178;2023-02-19T01:13:27;102053.41;;;17.21;51.86
46710;BME280;32442;51.514;-0.178;2023-02-19T01:18:24;102046.13;;;17.20;51.85
46710;BME280;32442;51.514;-0.178;2023-02-19T01:20:51;102051.47;;;17.21;52.21
46710;BME280;32442;51.514;-0.178;2023-02-19T01:23:20;102055.09;;;17.22;51.93
46710;BME280;32442;51.514;-0.178;2023-02-19T01:25:47;102053.13;;;17.22;52.21
46710;BME280;32442;51.514;-0.178;2023-02-19T01:28:14;102052.28;;;17.22;52.21
46710;BME280;32442;51.514;-0.178;2023-02-19T01:30:41;102045.03;;;17.21;52.13
46710;BME280;32442;51.514;-0.178;2023-02-19T01:33:08;102055.09;;;17.22;51.83
46710;BME280;32442;51.514;-0.178;2023-02-19T01:35:37;102052.28;;;17.22;51.82
46710;BME280;32442;51.514;-0.178;2023-02-19T01:38:04;102046.97;;;17.20;51.93
46710;BME280;32442;51.514;-0.178;2023-02-19T01:40:33;102056.47;;;17.19;52.17
46710;BME280;32442;51.514;-0.178;2023-02-19T01:43:00;102066.78;;;17.19;52.11
46710;BME280;32442;51.514;-0.178;2023-02-19T01:45:28;102062.88;;;17.20;52.11
46710;BME280;32442;51.514;-0.178;2023-02-19T01:47:57;102072.13;;;17.20;52.02
46710;BME280;32442;51.514;-0.178;2023-02-19T01:50:27;102079.41;;;17.21;51.88
46710;BME280;32442;51.514;-0.178;2023-02-19T01:52:55;102082.19;;;17.21;51.78
46710;BME280;32442;51.514;-0.178;2023-02-19T01:55:22;102086.09;;;17.20;51.94
46710;BME280;32442;51.514;-0.178;2023-02-19T01:57:50;102080.22;;;17.22;52.08
46710;BME280;32442;51.514;-0.178;2023-02-19T02:00:18;102060.66;;;17.22;52.01
46710;BME280;32442;51.514;-0.178;2023-02-19T02:02:47;102063.41;;;17.17;51.93
46710;BME280;32442;51.514;-0.178;2023-02-19T02:07:45;102062.28;;;17.18;51.95
46710;BME280;32442;51.514;-0.178;2023-02-19T02:10:14;102053.06;;;17.17;51.78
46710;BME280;32442;51.514;-0.178;2023-02-19T02:12:45;102054.19;;;17.16;51.95
46710;BME280;32442;51.514;-0.178;2023-02-19T02:15:11;102062.56;;;17.16;51.72
46710;BME280;32442;51.514;-0.178;2023-02-19T02:17:44;102067.88;;;17.18;51.98
46710;BME280;32442;51.514;-0.178;2023-02-19T02:32:44;102082.38;;;17.15;51.73
46710;BME280;32442;51.514;-0.178;2023-02-19T02:35:21;102087.09;;;17.14;52.20
46710;BME280;32442;51.514;-0.178;2023-02-19T02:37:48;102094.38;;;17.15;51.78
46710;BME280;32442;51.514;-0.178;2023-02-19T02:40:16;102096.31;;;17.15;51.78
46710;BME280;32442;51.514;-0.178;2023-02-19T02:42:44;102091.34;;;17.17;52.05
46710;BME280;32442;51.514;-0.178;2023-02-19T02:45:20;102106.41;;;17.16;52.07
46710;BME280;32442;51.514;-0.178;2023-02-19T02:47:52;102110.03;;;17.16;51.77
46710;BME280;32442;51.514;-0.178;2023-02-19T02:50:22;102095.47;;;17.14;51.80
46710;BME280;32442;51.514;-0.178;2023-02-19T02:52:52;102102.16;;;17.13;51.95
46710;BME280;32442;51.514;-0.178;2023-02-19T02:55:24;102099.13;;;17.15;51.80
46710;BME280;32442;51.514;-0.178;2023-02-19T02:57:54;102102.16;;;17.13;52.03
46710;BME280;32442;51.514;-0.178;2023-02-19T03:00:22;102103.00;;;17.14;51.66
46710;BME280;32442;51.514;-0.178;2023-02-19T03:02:49;102108.34;;;17.15;51.54
46710;BME280;32442;51.514;-0.178;2023-02-19T03:05:17;102105.56;;;17.15;51.70
46710;BME280;32442;51.514;-0.178;2023-02-19T03:07:51;102107.75;;;17.13;52.09
46710;BME280;32442;51.514;-0.178;2023-02-19T03:12:50;102109.44;;;17.14;51.78
46710;BME280;32442;51.514;-0.178;2023-02-19T03:15:23;102110.53;;;17.13;51.76
46710;BME280;32442;51.514;-0.178;2023-02-19T03:18:00;102106.91;;;17.13;51.43
46710;BME280;32442;51.514;-0.178;2023-02-19T03:20:31;102118.91;;;17.13;51.88
46710;BME280;32442;51.514;-0.178;2023-02-19T03:22:59;102120.59;;;17.14;51.91
46710;BME280;32442;51.514;-0.178;2023-02-19T03:25:29;102128.75;;;17.16;51.51
46710;BME280;32442;51.514;-0.178;2023-02-19T03:28:00;102131.78;;;17.14;51.78
46710;BME280;32442;51.514;-0.178;2023-02-19T03:30:31;102129.22;;;17.13;51.93
46710;BME280;32442;51.514;-0.178;2023-02-19T03:33:00;102126.19;;;17.14;51.52
46710;BME280;32442;51.514;-0.178;2023-02-19T03:35:30;102135.66;;;17.13;51.29
46710;BME280;32442;51.514;-0.178;2023-02-19T03:40:28;102135.66;;;17.13;51.66
46710;BME280;32442;51.514;-0.178;2023-02-19T03:50:29;102143.47;;;17.11;51.49
46710;BME280;32442;51.514;-0.178;2023-02-19T03:55:35;102150.75;;;17.12;51.41
46710;BME280;32442;51.514;-0.178;2023-02-19T03:58:05;102163.88;;;17.12;51.37
46710;BME280;32442;51.514;-0.178;2023-02-19T04:03:07;102164.13;;;17.10;51.68
46710;BME280;32442;51.514;-0.178;2023-02-19T04:05:39;102161.31;;;17.10;51.38
46710;BME280;32442;51.514;-0.178;2023-02-19T04:08:10;102171.63;;;17.10;51.69
46710;BME280;32442;51.514;-0.178;2023-02-19T04:10:37;102170.78;;;17.09;51.59
46710;BME280;32442;51.514;-0.178;2023-02-19T04:13:07;102181.97;;;17.09;51.39
46710;BME280;32442;51.514;-0.178;2023-02-19T04:15:36;102177.47;;;17.08;51.33
46710;BME280;32442;51.514;-0.178;2023-02-19T04:18:06;102175.28;;;17.10;51.41
46710;BME280;32442;51.514;-0.178;2023-02-19T04:23:04;102183.66;;;17.10;51.37
46710;BME280;32442;51.514;-0.178;2023-02-19T04:25:31;102191.78;;;17.12;51.41
46710;BME280;32442;51.514;-0.178;2023-02-19T04:27:58;102181.97;;;17.09;51.17
46710;BME280;32442;51.514;-0.178;2023-02-19T04:30:25;102195.06;;;17.09;51.30
46710;BME280;32442;51.514;-0.178;2023-02-19T04:32:52;102201.50;;;17.09;50.91
46710;BME280;32442;51.514;-0.178;2023-02-19T04:35:19;102208.19;;;17.08;51.01
46710;BME280;32442;51.514;-0.178;2023-02-19T04:37:45;102208.19;;;17.08;51.22
46710;BME280;32442;51.514;-0.178;2023-02-19T04:40:12;102206.25;;;17.09;50.97
46710;BME280;32442;51.514;-0.178;2023-02-19T04:42:39;102208.47;;;17.07;50.91
46710;BME280;32442;51.514;-0.178;2023-02-19T04:45:06;102214.03;;;17.07;50.99
46710;BME280;32442;51.514;-0.178;2023-02-19T04:47:33;102216.31;;;17.10;51.07
46710;BME280;32442;51.514;-0.178;2023-02-19T04:49:59;102220.47;;;17.07;50.94
46710;BME280;32442;51.514;-0.178;2023-02-19T04:52:26;102223.28;;;17.07;50.88
46710;BME280;32442;51.514;-0.178;2023-02-19T04:54:55;102216.00;;;17.06;50.90
46710;BME280;32442;51.514;-0.178;2023-02-19T04:57:22;102228.00;;;17.07;51.15
46710;BME280;32442;51.514;-0.178;2023-02-19T04:59:49;102223.50;;;17.06;50.90
46710;BME280;32442;51.514;-0.178;2023-02-19T05:02:16;102222.66;;;17.05;50.75
46710;BME280;32442;51.514;-0.178;2023-02-19T05:04:42;102237.47;;;17.06;50.84
46710;BME280;32442;51.514;-0.178;2023-02-19T05:07:09;102237.72;;;17.04;51.01
46710;BME280;32442;51.514;-0.178;2023-02-19T05:09:36;102239.66;;;17.04;50.81
46710;BME280;32442;51.514;-0.178;2023-02-19T05:12:03;102243.91;;;17.06;50.77
46710;BME280;32442;51.514;-0.178;2023-02-19T05:14:29;102241.13;;;17.06;50.77
46710;BME280;32442;51.514;-0.178;2023-02-19T05:16:56;102241.13;;;17.06;50.92
46710;BME280;32442;51.514;-0.178;2023-02-19T05:19:23;102244.16;;;17.05;50.66
46710;BME280;32442;51.514;-0.178;2023-02-19T05:21:52;102246.09;;;17.04;50.44
46710;BME280;32442;51.514;-0.178;2023-02-19T05:24:19;102260.31;;;17.03;50.75
46710;BME280;32442;51.514;-0.178;2023-02-19T05:26:46;102252.81;;;17.03;50.46
46710;BME280;32442;51.514;-0.178;2023-02-19T05:29:13;102258.13;;;17.05;50.77
46710;BME280;32442;51.514;-0.178;2023-02-19T05:31:40;102256.69;;;17.02;50.53
46710;BME280;32442;51.514;-0.178;2023-02-19T05:34:07;102263.13;;;17.03;50.62
46710;BME280;32442;51.514;-0.178;2023-02-19T05:36:34;102269.78;;;17.02;50.45
46710;BME280;32442;51.514;-0.178;2023-02-19T05:39:02;102271.97;;;17.00;50.43
46710;BME280;32442;51.514;-0.178;2023-02-19T05:41:32;102273.69;;;17.01;50.64
46710;BME280;32442;51.514;-0.178;2023-02-19T05:43:59;102280.72;;;17.03;50.62
46710;BME280;32442;51.514;-0.178;2023-02-19T05:46:26;102272.59;;;17.02;50.66
46710;BME280;32442;51.514;-0.178;2023-02-19T05:48:55;102277.31;;;17.01;50.25
46710;BME280;32442;51.514;-0.178;2023-02-19T05:51:24;102279.88;;;17.03;50.71
46710;BME280;32442;51.514;-0.178;2023-02-19T05:53:51;102265.31;;;17.01;50.75
46710;BME280;32442;51.514;-0.178;2023-02-19T05:58:48;102259.97;;;16.99;50.72
46710;BME280;32442;51.514;-0.178;2023-02-19T06:01:15;102256.06;;;17.00;50.40
46710;BME280;32442;51.514;-0.178;2023-02-19T06:03:41;102262.50;;;17.01;50.51
46710;BME280;32442;51.514;-0.178;2023-02-19T06:06:09;102271.13;;;16.99;50.52
46710;BME280;32442;51.514;-0.178;2023-02-19T06:08:38;102269.47;;;16.98;50.72
46710;BME280;32442;51.514;-0.178;2023-02-19T06:11:05;102286.53;;;17.02;50.56
46710;BME280;32442;51.514;-0.178;2023-02-19T06:13:31;102275.63;;;17.00;50.24
46710;BME280;32442;51.514;-0.178;2023-02-19T06:15:58;102277.56;;;17.00;50.41
46710;BME280;32442;51.514;-0.178;2023-02-19T06:18:25;102283.41;;;16.98;50.65
46710;BME280;32442;51.514;-0.178;2023-02-19T06:20:52;102289.84;;;16.99;50.67
46710;BME280;32442;51.514;-0.178;2023-02-19T06:23:18;102285.94;;;17.00;50.26
46710;BME280;32442;51.514;-0.178;2023-02-19T06:25:45;102290.66;;;16.99;50.30
46710;BME280;32442;51.514;-0.178;2023-02-19T06:28:12;102292.38;;;17.00;50.39
46710;BME280;32442;51.514;-0.178;2023-02-19T06:30:38;102293.47;;;16.99;50.56
46710;BME280;32442;51.514;-0.178;2023-02-19T06:33:08;102294.59;;;16.98;50.57
46710;BME280;32442;51.514;-0.178;2023-02-19T06:35:34;102299.31;;;16.98;50.61
46710;BME280;32442;51.514;-0.178;2023-02-19T06:38:01;102298.22;;;16.99;50.52
46710;BME280;32442;51.514;-0.178;2023-02-19T06:40:28;102299.31;;;16.98;50.63
46710;BME280;32442;51.514;-0.178;2023-02-19T06:42:57;102307.69;;;16.98;50.53
46710;BME280;32442;51.514;-0.178;2023-02-19T06:45:24;102304.91;;;16.98;50.36
46710;BME280;32442;51.514;-0.178;2023-02-19T06:47:51;102319.72;;;16.98;50.43
46710;BME280;32442;51.514;-0.178;2023-02-19T06:50:17;102328.66;;;17.00;50.25
46710;BME280;32442;51.514;-0.178;2023-02-19T06:52:44;102328.94;;;16.99;50.23
46710;BME280;32442;51.514;-0.178;2023-02-19T06:55:11;102322.22;;;17.00;50.60
46710;BME280;32442;51.514;-0.178;2023-02-19T06:57:38;102332.81;;;16.98;50.57
46710;BME280;32442;51.514;-0.178;2023-02-19T07:00:05;102322.75;;;16.97;50.14
46710;BME280;32442;51.514;-0.178;2023-02-19T07:02:31;102321.66;;;16.98;50.61
46710;BME280;32442;51.514;-0.178;2023-02-19T07:04:58;102334.53;;;16.99;50.13
46710;BME280;32442;51.514;-0.178;2023-02-19T07:07:25;102336.69;;;16.97;50.34
46710;BME280;32442;51.514;-0.178;2023-02-19T07:09:51;102341.19;;;16.98;50.18
46710;BME280;32442;51.514;-0.178;2023-02-19T07:12:18;102340.34;;;16.97;50.29
46710;BME280;32442;51.514;-0.178;2023-02-19T07:14:45;102352.09;;;16.99;50.04
46710;BME280;32442;51.514;-0.178;2023-02-19T07:17:12;102363.78;;;16.96;50.27
46710;BME280;32442;51.514;-0.178;2023-02-19T07:19:38;102362.69;;;16.97;50.42
46710;BME280;32442;51.514;-0.178;2023-02-19T07:22:05;102359.03;;;16.97;50.14
46710;BME280;32442;51.514;-0.178;2023-02-19T07:24:32;102358.19;;;16.96;50.30
46710;BME280;32442;51.514;-0.178;2023-02-19T07:26:59;102361.22;;;16.95;50.35
46710;BME280;32442;51.514;-0.178;2023-02-19T07:29:25;102376.03;;;16.95;50.26
46710;BME280;32442;51.514;-0.178;2023-02-19T07:31:52;102391.69;;;16.96;50.13
46710;BME280;32442;51.514;-0.178;2023-02-19T07:34:21;102395.09;;;16.98;50.41
46710;BME280;32442;51.514;-0.178;2023-02-19T07:36:48;102387.81;;;16.97;50.25
46710;BME280;32442;51.514;-0.178;2023-02-19T07:39:15;102381.13;;;16.98;50.40
46710;BME280;32442;51.514;-0.178;2023-02-19T07:41:41;102390.84;;;16.96;50.11
46710;BME280;32442;51.514;-0.178;2023-02-19T07:44:08;102394.47;;;16.96;50.28
46710;BME280;32442;51.514;-0.178;2023-02-19T07:46:35;102400.91;;;16.97;50.36
46710;BME280;32442;51.514;-0.178;2023-02-19T07:49:01;102402.84;;;16.96;50.34
46710;BME280;32442;51.514;-0.178;2023-02-19T07:51:28;102405.41;;;16.98;50.13
46710;BME280;32442;51.514;-0.178;2023-02-19T07:53:55;102431.88;;;16.95;50.22
46710;BME280;32442;51.514;-0.178;2023-02-19T07:56:23;102414.03;;;16.96;50.32
46710;BME280;32442;51.514;-0.178;2023-02-19T07:58:49;102411.22;;;16.96;49.96
46710;BME280;32442;51.514;-0.178;2023-02-19T08:01:17;102419.59;;;16.96;50.24
46710;BME280;32442;51.514;-0.178;2023-02-19T08:03:44;102414.88;;;16.97;50.14
46710;BME280;32442;51.514;-0.178;2023-02-19T08:06:14;102427.13;;;16.96;50.07
46710;BME280;32442;51.514;-0.178;2023-02-19T08:08:41;102424.34;;;16.96;50.37
46710;BME280;32442;51.514;-0.178;2023-02-19T08:11:08;102431.88;;;16.95;50.04
46710;BME280;32442;51.514;-0.178;2023-02-19T08:13:38;102447.53;;;16.96;50.11
46710;BME280;32442;51.514;-0.178;2023-02-19T08:18:46;102455.91;;;16.96;50.10
46710;BME280;32442;51.514;-0.178;2023-02-19T08:21:13;102457.84;;;16.96;50.04
46710;BME280;32442;51.514;-0.178;2023-02-19T08:23:40;102469.00;;;16.96;50.05
46710;BME280;32442;51.514;-0.178;2023-02-19T08:26:09;102483.22;;;16.94;50.11
46710;BME280;32442;51.514;-0.178;2023-02-19T08:28:36;102490.50;;;16.95;50.44
46710;BME280;32442;51.514;-0.178;2023-02-19T08:31:04;102493.03;;;16.97;50.14
46710;BME280;32442;51.514;-0.178;2023-02-19T08:33:31;102498.88;;;16.95;50.21
46710;BME280;32442;51.514;-0.178;2023-02-19T08:36:00;102496.06;;;16.95;49.99
46710;BME280;32442;51.514;-0.178;2023-02-19T08:38:30;102498.00;;;16.95;50.17
46710;BME280;32442;51.514;-0.178;2023-02-19T08:40:58;102491.63;;;16.94;50.31
46710;BME280;32442;51.514;-0.178;2023-02-19T08:43:40;102500.22;;;16.93;50.15
46710;BME280;32442;51.514;-0.178;2023-02-19T08:46:08;102514.75;;;16.95;50.43
46710;BME280;32442;51.514;-0.178;2023-02-19T08:48:36;102500.81;;;16.95;50.03
46710;BME280;32442;51.514;-0.178;2023-02-19T08:51:04;102491.63;;;16.94;50.29
46710;BME280;32442;51.514;-0.178;2023-02-19T08:53:34;102483.22;;;16.94;50.02
46710;BME280;32442;51.514;-0.178;2023-02-19T08:58:32;102472.06;;;16.94;50.02
46710;BME280;32442;51.514;-0.178;2023-02-19T09:00:58;102470.38;;;16.93;50.28
46710;BME280;32442;51.514;-0.178;2023-02-19T09:03:25;102477.03;;;16.92;50.04
46710;BME280;32442;51.514;-0.178;2023-02-19T09:05:52;102489.06;;;16.93;50.15
46710;BME280;32442;51.514;-0.178;2023-02-19T09:08:21;102503.59;;;16.95;49.95
46710;BME280;32442;51.514;-0.178;2023-02-19T09:13:18;102498.00;;;16.95;49.91
46710;BME280;32442;51.514;-0.178;2023-02-19T09:15:45;102498.88;;;16.95;50.03
46710;BME280;32442;51.514;-0.178;2023-02-19T09:18:12;102501.66;;;16.95;49.90
46710;BME280;32442;51.514;-0.178;2023-02-19T09:20:39;102505.31;;;16.96;50.20
46710;BME280;32442;51.514;-0.178;2023-02-19T09:23:06;102501.66;;;16.95;49.92
46710;BME280;32442;51.514;-0.178;2023-02-19T09:25:32;102511.75;;;16.96;49.96
46710;BME280;32442;51.514;-0.178;2023-02-19T09:27:59;102512.59;;;16.97;49.92
46710;BME280;32442;51.514;-0.178;2023-02-19T09:30:26;102519.03;;;16.97;50.02
46710;BME280;32442;51.514;-0.178;2023-02-19T09:32:55;102534.31;;;16.95;50.08
46710;BME280;32442;51.514;-0.178;2023-02-19T09:35:22;102529.34;;;16.97;49.84
46710;BME280;32442;51.514;-0.178;2023-02-19T09:37:49;102539.41;;;16.98;50.09
46710;BME280;32442;51.514;-0.178;2023-02-19T09:40:16;102552.28;;;16.99;49.93
46710;BME280;32442;51.514;-0.178;2023-02-19T09:42:47;102544.75;;;16.99;49.82
46710;BME280;32442;51.514;-0.178;2023-02-19T09:45:19;102556.75;;;17.00;49.77
46710;BME280;32442;51.514;-0.178;2023-02-19T09:47:47;102558.47;;;17.01;49.84
46710;BME280;32442;51.514;-0.178;2023-02-19T09:50:16;102559.31;;;17.01;49.73
46710;BME280;32442;51.514;-0.178;2023-02-19T09:52:48;102559.09;;;17.03;49.92
46710;BME280;32442;51.514;-0.178;2023-02-19T09:55:22;102568.31;;;17.03;49.57
46710;BME280;32442;51.514;-0.178;2023-02-19T09:57:52;102578.34;;;17.04;49.89
46710;BME280;32442;51.514;-0.178;2023-02-19T10:00:20;102578.63;;;17.03;49.75
46710;BME280;32442;51.514;-0.178;2023-02-19T10:02:50;102578.63;;;17.03;49.72
46710;BME280;32442;51.514;-0.178;2023-02-19T10:05:17;102580.06;;;17.05;49.41
46710;BME280;32442;51.514;-0.178;2023-02-19T10:07:45;102576.41;;;17.05;49.59
46710;BME280;32442;51.514;-0.178;2023-02-19T10:10:20;102558.56;;;17.06;49.71
46710;BME280;32442;51.514;-0.178;2023-02-19T10:12:50;102560.28;;;17.07;49.44
46710;BME280;32442;51.514;-0.178;2023-02-19T10:17:48;102561.72;;;17.09;49.69
46710;BME280;32442;51.514;-0.178;2023-02-19T10:20:16;102563.44;;;17.10;49.45
46710;BME280;32442;51.514;-0.178;2023-02-19T10:22:44;102570.44;;;17.13;49.19
46710;BME280;32442;51.514;-0.178;2023-02-19T10:25:12;102575.22;;;17.12;49.29
46710;BME280;32442;51.514;-0.178;2023-02-19T10:27:39;102576.03;;;17.13;49.12
46710;BME280;32442;51.514;-0.178;2023-02-19T10:30:08;102579.69;;;17.13;49.33
46710;BME280;32442;51.514;-0.178;2023-02-19T10:32:44;102585.03;;;17.15;49.18
46710;BME280;32442;51.514;-0.178;2023-02-19T10:35:25;102575.81;;;17.14;49.48
46710;BME280;32442;51.514;-0.178;2023-02-19T10:37:52;102576.41;;;17.16;49.15
46710;BME280;32442;51.514;-0.178;2023-02-19T10:40:21;102582.84;;;17.17;49.17
46710;BME280;32442;51.514;-0.178;2023-02-19T10:42:49;102580.88;;;17.17;49.18
46710;BME280;32442;51.514;-0.178;2023-02-19T10:45:17;102587.94;;;17.20;49.17
46710;BME280;32442;51.514;-0.178;2023-02-19T10:47:45;102589.66;;;17.21;49.30
46710;BME280;32442;51.514;-0.178;2023-02-19T10:50:15;102588.53;;;17.22;49.19
46710;BME280;32442;51.514;-0.178;2023-02-19T10:52:42;102589.13;;;17.24;49.01
46710;BME280;32442;51.514;-0.178;2023-02-19T10:57:43;102593.03;;;17.23;49.00
46710;BME280;32442;51.514;-0.178;2023-02-19T11:02:39;102594.72;;;17.24;48.65
46710;BME280;32442;51.514;-0.178;2023-02-19T11:07:42;102596.66;;;17.23;48.69
46710;BME280;32442;51.514;-0.178;2023-02-19T11:10:18;102609.78;;;17.23;48.79
46710;BME280;32442;51.514;-0.178;2023-02-19T11:12:48;102610.63;;;17.23;49.24
46710;BME280;32442;51.514;-0.178;2023-02-19T11:15:18;102602.25;;;17.23;49.15
46710;BME280;32442;51.514;-0.178;2023-02-19T11:20:16;102611.25;;;17.25;48.69
46710;BME280;32442;51.514;-0.178;2023-02-19T11:22:45;102602.88;;;17.25;48.78
46710;BME280;32442;51.514;-0.178;2023-02-19T11:32:40;102614.63;;;17.27;48.72
46710;BME280;32442;51.514;-0.178;2023-02-19T11:37:38;102609.03;;;17.27;48.34
46710;BME280;32442;51.514;-0.178;2023-02-19T11:40:19;102618.63;;;17.31;48.47
46710;BME280;32442;51.514;-0.178;2023-02-19T11:42:50;102616.69;;;17.32;48.38
46710;BME280;32442;51.514;-0.178;2023-02-19T11:50:21;102593.00;;;17.34;48.21
46710;BME280;32442;51.514;-0.178;2023-02-19T11:55:33;102588.00;;;17.37;48.43
46710;BME280;32442;51.514;-0.178;2023-02-19T12:00:34;102586.41;;;17.41;48.16
46710;BME280;32442;51.514;-0.178;2023-02-19T12:08:09;102587.63;;;17.45;47.74
46710;BME280;32442;51.514;-0.178;2023-02-19T12:25:40;102553.50;;;17.43;47.61
46710;BME280;32442;51.514;-0.178;2023-02-19T12:38:11;102544.63;;;17.46;47.41
46710;BME280;32442;51.514;-0.178;2023-02-19T12:45:42;102555.56;;;17.47;47.53
46710;BME280;32442;51.514;-0.178;2023-02-19T12:50:41;102559.19;;;17.48;47.90
46710;BME280;32442;51.514;-0.178;2023-02-19T12:53:17;102549.97;;;17.47;47.63
46710;BME280;32442;51.514;-0.178;2023-02-19T12:55:47;102555.56;;;17.47;47.31
46710;BME280;32442;51.514;-0.178;2023-02-19T12:58:17;102561.72;;;17.49;47.29
46710;BME280;32442;51.514;-0.178;2023-02-19T13:00:48;102549.97;;;17.47;47.77
46710;BME280;32442;51.514;-0.178;2023-02-19T13:03:18;102550.81;;;17.48;47.37
46710;BME280;32442;51.514;-0.178;2023-02-19T13:05:49;102543.28;;;17.48;47.44
46710;BME280;32442;51.514;-0.178;2023-02-19T13:10:48;102548.59;;;17.50;47.29
46710;BME280;32442;51.514;-0.178;2023-02-19T13:13:19;102547.75;;;17.49;47.48
46710;BME280;32442;51.514;-0.178;2023-02-19T13:15:51;102543.28;;;17.48;47.64
46710;BME280;32442;51.514;-0.178;2023-02-19T13:18:23;102534.06;;;17.48;47.33
46710;BME280;32442;51.514;-0.178;2023-02-19T13:20:52;102536.22;;;17.46;47.52
46710;BME280;32442;51.514;-0.178;2023-02-19T13:30:59;102522.88;;;17.48;47.17
46710;BME280;32442;51.514;-0.178;2023-02-19T13:33:34;102527.38;;;17.49;47.63
46710;BME280;32442;51.514;-0.178;2023-02-19T13:38:38;102523.47;;;17.50;47.42
46710;BME280;32442;51.514;-0.178;2023-02-19T13:41:14;102536.56;;;17.49;47.38
46710;BME280;32442;51.514;-0.178;2023-02-19T13:43:43;102521.16;;;17.47;47.32
46710;BME280;32442;51.514;-0.178;2023-02-19T13:46:13;102520.94;;;17.48;47.44
46710;BME280;32442;51.514;-0.178;2023-02-19T13:48:42;102535.75;;;17.49;47.50
46710;BME280;32442;51.514;-0.178;2023-02-19T13:58:50;102535.47;;;17.50;47.07
46710;BME280;32442;51.514;-0.178;2023-02-19T14:01:18;102504.75;;;17.50;47.31
46710;BME280;32442;51.514;-0.178;2023-02-19T14:03:50;102503.66;;;17.51;47.04
46710;BME280;32442;51.514;-0.178;2023-02-19T14:06:19;102491.88;;;17.49;47.24
46710;BME280;32442;51.514;-0.178;2023-02-19T14:08:48;102505.59;;;17.51;47.20
46710;BME280;32442;51.514;-0.178;2023-02-19T14:11:16;102515.94;;;17.50;46.99
46710;BME280;32442;51.514;-0.178;2023-02-19T14:16:27;102505.09;;;17.54;47.43
46710;BME280;32442;51.514;-0.178;2023-02-19T14:18:54;102507.66;;;17.55;47.52
46710;BME280;32442;51.514;-0.178;2023-02-19T14:21:22;102498.41;;;17.55;47.16
46710;BME280;32442;51.514;-0.178;2023-02-19T14:23:52;102498.16;;;17.56;47.05
46710;BME280;32442;51.514;-0.178;2023-02-19T14:26:21;102493.44;;;17.57;47.15
46710;BME280;32442;51.514;-0.178;2023-02-19T14:28:48;102485.91;;;17.57;47.19
46710;BME280;32442;51.514;-0.178;2023-02-19T14:31:18;102480.06;;;17.59;47.17
46710;BME280;32442;51.514;-0.178;2023-02-19T14:33:49;102483.97;;;17.58;47.15
46710;BME280;32442;51.514;-0.178;2023-02-19T14:36:23;102483.09;;;17.57;46.97
46710;BME280;32442;51.514;-0.178;2023-02-19T14:38:54;102482.25;;;17.57;47.04
46710;BME280;32442;51.514;-0.178;2023-02-19T14:41:24;102483.09;;;17.57;47.12
46710;BME280;32442;51.514;-0.178;2023-02-19T14:43:54;102486.50;;;17.59;47.08
46710;BME280;32442;51.514;-0.178;2023-02-19T14:46:25;102489.31;;;17.59;47.29
46710;BME280;32442;51.514;-0.178;2023-02-19T14:48:54;102492.09;;;17.59;46.90
46710;BME280;32442;51.514;-0.178;2023-02-19T14:53:52;102491.88;;;17.61;47.17
46710;BME280;32442;51.514;-0.178;2023-02-19T14:56:22;102487.38;;;17.60;47.10
46710;BME280;32442;51.514;-0.178;2023-02-19T15:03:52;102478.75;;;17.61;47.27
46710;BME280;32442;51.514;-0.178;2023-02-19T15:06:19;102482.63;;;17.60;46.84
46710;BME280;32442;51.514;-0.178;2023-02-19T15:08:50;102482.63;;;17.60;47.32
46710;BME280;32442;51.514;-0.178;2023-02-19T15:11:19;102481.78;;;17.60;47.32
46710;BME280;32442;51.514;-0.178;2023-02-19T15:13:48;102482.38;;;17.62;47.16
46710;BME280;32442;51.514;-0.178;2023-02-19T15:16:17;102477.38;;;17.64;47.11
46710;BME280;32442;51.514;-0.178;2023-02-19T15:18:45;102465.63;;;17.62;47.28
46710;BME280;32442;51.514;-0.178;2023-02-19T15:23:44;102464.75;;;17.61;47.01
46710;BME280;32442;51.514;-0.178;2023-02-19T15:26:15;102461.44;;;17.64;47.07
46710;BME280;32442;51.514;-0.178;2023-02-19T15:28:44;102455.88;;;17.64;47.18